Time;durP1;ratioP1;P1;durP2;ratioP2;P2;SDS_P1;SDS_P2;PMS_P1;PMS_P2;Temp;Humidity;BMP_temperature;BMP_pressure;BME280_temperature;BME280_humidity;BME280_pressure;Samples;Min_cycle;Max_cycle;Signal;HPM_P1;HPM_P2
2021/01/22 00:00:11;;;;;;;11.88;5.28;;;;;;;4.80;69.86;95653.73;1757385;81;21672;-84
2021/01/22 00:02:40;;;;;;;11.45;5.70;;;;;;;4.81;69.94;95645.59;1757330;82;21136;-84
2021/01/22 00:05:08;;;;;;;7.40;3.75;;;;;;;4.76;69.97;95637.17;1757370;82;21717;-83
2021/01/22 00:07:36;;;;;;;8.90;4.03;;;;;;;4.76;70.22;95629.30;1757379;82;21503;-83
2021/01/22 00:10:03;;;;;;;6.58;4.05;;;;;;;4.83;70.17;95636.13;1757332;81;21526;-83
2021/01/22 00:12:30;;;;;;;8.78;4.65;;;;;;;4.85;70.14;95629.56;1757294;82;21140;-83
2021/01/22 00:14:57;;;;;;;5.65;3.62;;;;;;;4.90;70.06;95628.75;1757376;82;21262;-83
2021/01/22 00:17:24;;;;;;;10.90;4.40;;;;;;;4.94;70.08;95640.33;1757271;81;21147;-83
2021/01/22 00:19:51;;;;;;;7.00;4.15;;;;;;;4.95;69.96;95639.27;1757218;81;21144;-83
2021/01/22 00:22:18;;;;;;;5.20;3.15;;;;;;;4.94;70.05;95636.38;1757237;82;21239;-83
2021/01/22 00:24:45;;;;;;;10.63;4.75;;;;;;;4.90;70.08;95634.00;1757294;82;21144;-83
2021/01/22 00:27:12;;;;;;;6.78;4.40;;;;;;;4.91;70.19;95636.89;1757272;82;21514;-83
2021/01/22 00:29:39;;;;;;;11.38;4.85;;;;;;;4.90;70.21;95632.69;1757246;81;21167;-83
2021/01/22 00:32:06;;;;;;;8.43;4.72;;;;;;;4.90;70.28;95635.32;1757323;81;21124;-83
2021/01/22 00:34:33;;;;;;;14.00;5.25;;;;;;;4.92;70.29;95630.05;1757296;81;21116;-83
2021/01/22 00:37:00;;;;;;;9.93;4.95;;;;;;;4.93;70.27;95616.42;1757339;82;21167;-83
2021/01/22 00:39:27;;;;;;;10.53;5.50;;;;;;;4.92;70.27;95616.14;1757326;81;21175;-83
2021/01/22 00:41:54;;;;;;;8.03;4.83;;;;;;;4.91;70.34;95607.48;1757281;81;21124;-83
2021/01/22 00:44:21;;;;;;;10.68;5.12;;;;;;;4.87;70.48;95597.78;1757271;81;21167;-84
2021/01/22 00:46:48;;;;;;;11.30;5.62;;;;;;;4.84;70.72;95595.69;1757030;82;21159;-83
2021/01/22 00:49:15;;;;;;;11.35;5.40;;;;;;;4.84;70.83;95576.00;1757332;81;21513;-83
2021/01/22 00:51:42;;;;;;;10.90;4.47;;;;;;;4.83;70.73;95571.80;1757300;82;21513;-83
2021/01/22 00:54:09;;;;;;;9.38;5.50;;;;;;;4.80;71.02;95572.34;1757240;82;21147;-83
2021/01/22 00:56:36;;;;;;;11.45;4.60;;;;;;;4.79;71.10;95561.58;1757337;82;21966;-83
2021/01/22 00:59:03;;;;;;;7.58;3.58;;;;;;;4.77;71.23;95570.48;1757240;81;21178;-83
2021/01/22 01:01:30;;;;;;;11.10;5.12;;;;;;;4.79;71.29;95566.83;1757274;82;21135;-83
2021/01/22 01:03:57;;;;;;;7.80;3.65;;;;;;;4.81;71.22;95549.75;1757315;82;21535;-83
2021/01/22 01:06:24;;;;;;;12.25;5.40;;;;;;;4.85;71.24;95567.85;1757263;82;21149;-83
2021/01/22 01:08:51;;;;;;;9.58;4.97;;;;;;;4.85;71.07;95560.50;1757312;81;21151;-83
2021/01/22 01:11:18;;;;;;;8.18;4.42;;;;;;;4.82;71.01;95529.00;1757267;82;21124;-83
2021/01/22 01:13:45;;;;;;;8.78;4.42;;;;;;;4.82;70.99;95559.73;1757242;82;21160;-83
2021/01/22 01:16:12;;;;;;;9.45;4.65;;;;;;;4.84;70.94;95556.30;1757322;82;21484;-83
2021/01/22 01:18:39;;;;;;;9.78;4.50;;;;;;;4.85;70.97;95561.81;1757013;81;21172;-83
2021/01/22 01:21:06;;;;;;;8.80;4.33;;;;;;;4.80;70.89;95548.19;1757457;82;21155;-83
2021/01/22 01:23:33;;;;;;;8.68;4.10;;;;;;;4.70;70.97;95552.92;1757343;81;21510;-83
2021/01/22 01:26:01;;;;;;;6.95;3.85;;;;;;;4.65;71.17;95550.33;1757339;82;21160;-83
2021/01/22 01:28:28;;;;;;;6.78;2.83;;;;;;;4.65;71.30;95554.27;1757209;81;21144;-83
2021/01/22 01:30:56;;;;;;;7.47;3.25;;;;;;;4.63;71.36;95544.53;1753484;82;21506;-83
2021/01/22 01:33:22;;;;;;;5.55;3.10;;;;;;;4.59;71.50;95543.50;1751725;82;21519;-83
2021/01/22 01:35:52;;;;;;;5.67;3.87;;;;;;;4.55;71.57;95533.80;1751645;82;21152;-83
2021/01/22 01:38:20;;;;;;;6.58;3.45;;;;;;;4.53;71.70;95544.57;1751654;81;21484;-83
2021/01/22 01:40:49;;;;;;;6.67;3.27;;;;;;;4.52;71.65;95545.62;1751916;81;21163;-83
2021/01/22 01:43:16;;;;;;;11.05;4.35;;;;;;;4.54;71.74;95533.02;1751924;81;21298;-83
2021/01/22 01:45:43;;;;;;;3.62;2.40;;;;;;;4.53;71.53;95543.78;1751639;82;21155;-83
2021/01/22 01:48:11;;;;;;;7.60;3.85;;;;;;;4.49;71.62;95534.32;1751324;81;21143;-83
2021/01/22 01:50:40;;;;;;;8.88;3.70;;;;;;;4.53;71.45;95536.70;1751604;81;21160;-83
2021/01/22 01:53:08;;;;;;;7.90;4.03;;;;;;;4.51;71.36;95536.18;1751689;82;21543;-83
2021/01/22 01:55:37;;;;;;;5.83;3.30;;;;;;;4.46;71.41;95533.55;1751707;82;21140;-83
2021/01/22 01:58:06;;;;;;;6.22;3.33;;;;;;;4.43;71.36;95529.63;1722321;81;21183;-83
2021/01/22 02:00:35;;;;;;;7.08;3.55;;;;;;;4.37;71.28;95518.88;1751618;82;21139;-83
2021/01/22 02:03:03;;;;;;;6.70;3.40;;;;;;;4.33;71.28;95517.03;1751626;82;21514;-83
2021/01/22 02:05:30;;;;;;;7.92;3.52;;;;;;;4.28;71.30;95515.22;1751888;82;21302;-83
2021/01/22 02:07:57;;;;;;;7.95;4.25;;;;;;;4.25;71.37;95513.66;1751710;82;21301;-83
2021/01/22 02:10:25;;;;;;;8.55;3.77;;;;;;;4.25;71.43;95503.16;1721686;82;22444;-83
2021/01/22 02:12:55;;;;;;;7.33;3.58;;;;;;;4.23;71.42;95494.77;1751586;82;21527;-83
2021/01/22 02:15:23;;;;;;;7.42;3.80;;;;;;;4.22;71.41;95493.17;1751740;82;21136;-83
2021/01/22 02:17:52;;;;;;;7.83;4.17;;;;;;;4.22;71.56;95494.48;1751444;82;21251;-83
2021/01/22 02:20:50;;;;;;;7.97;3.37;;;;;;;4.24;71.48;95484.55;1751655;81;21148;-83
2021/01/22 02:23:20;;;;;;;7.58;3.47;;;;;;;4.26;71.40;95475.88;1751588;82;21528;-84
2021/01/22 02:25:50;;;;;;;7.45;3.42;;;;;;;4.24;71.40;95483.23;1751739;82;21522;-84
2021/01/22 02:28:18;;;;;;;5.10;3.17;;;;;;;4.25;71.40;95471.16;1722325;81;21128;-84
2021/01/22 02:30:50;;;;;;;6.15;3.20;;;;;;;4.30;71.38;95475.06;1725584;82;21163;-83
2021/01/22 02:33:20;;;;;;;5.90;3.22;;;;;;;4.31;71.19;95467.45;1757219;81;21112;-83
2021/01/22 02:35:51;;;;;;;6.42;3.20;;;;;;;4.30;71.10;95465.10;1757195;82;21151;-83
2021/01/22 02:38:20;;;;;;;7.20;3.60;;;;;;;4.26;70.98;95461.45;1757301;81;21136;-83
2021/01/22 02:40:49;;;;;;;7.97;3.58;;;;;;;4.22;70.99;95454.61;1757481;82;21166;-83
2021/01/22 02:43:17;;;;;;;6.33;3.25;;;;;;;4.23;71.08;95452.80;1757162;82;21151;-83
2021/01/22 02:45:46;;;;;;;7.33;3.12;;;;;;;4.24;70.93;95445.19;1757174;82;21159;-84
2021/01/22 02:48:15;;;;;;;6.78;3.08;;;;;;;4.20;70.83;95443.61;1756930;81;21144;-84
2021/01/22 02:50:42;;;;;;;5.60;3.13;;;;;;;4.17;70.75;95433.66;1757629;82;21519;-83
2021/01/22 02:53:09;;;;;;;4.55;2.90;;;;;;;4.21;70.72;95428.66;1757173;82;21167;-83
2021/01/22 02:55:37;;;;;;;2.85;1.62;;;;;;;4.22;70.65;95430.22;1757268;82;21523;-83
2021/01/22 02:58:24;;;;;;;5.75;2.80;;;;;;;4.44;70.03;95420.98;1757132;81;21142;-83
2021/01/22 03:00:55;;;;;;;6.20;2.95;;;;;;;4.50;69.86;95409.92;1754482;81;21644;-83
2021/01/22 03:04:01;;;;;;;7.35;3.35;;;;;;;4.44;69.60;95413.63;1768035;81;21143;-84
2021/01/22 03:06:32;;;;;;;6.08;2.55;;;;;;;4.53;69.49;95409.41;1768013;81;21112;-84
2021/01/22 03:09:02;;;;;;;6.12;3.30;;;;;;;4.65;69.02;95405.17;1767749;81;21543;-84
2021/01/22 03:11:32;;;;;;;5.97;2.98;;;;;;;4.48;68.58;95394.45;1768041;81;21127;-84
2021/01/22 03:14:04;;;;;;;6.10;2.87;;;;;;;4.24;68.83;95380.40;1768120;81;21133;-84
2021/01/22 03:16:34;;;;;;;7.58;2.83;;;;;;;4.14;69.14;95383.83;1767056;81;21119;-84
2021/01/22 03:19:04;;;;;;;7.65;2.75;;;;;;;4.12;69.33;95379.38;1757263;81;21185;-84
2021/01/22 03:21:31;;;;;;;3.52;1.90;;;;;;;4.20;69.22;95376.72;1757319;82;21156;-84
2021/01/22 03:23:59;;;;;;;3.92;2.10;;;;;;;4.32;68.99;95368.55;1757364;82;21646;-84
2021/01/22 03:26:26;;;;;;;6.87;2.33;;;;;;;4.48;68.87;95365.58;1757178;82;21511;-84
2021/01/22 03:28:53;;;;;;;5.03;2.40;;;;;;;4.57;68.78;95365.81;1757248;81;21534;-84
2021/01/22 03:31:20;;;;;;;4.35;2.33;;;;;;;4.61;68.52;95360.28;1757074;82;21175;-84
2021/01/22 03:33:47;;;;;;;2.60;1.37;;;;;;;4.68;68.51;95354.22;1757251;82;21132;-84
2021/01/22 03:36:16;;;;;;;4.28;2.40;;;;;;;4.77;67.74;95358.34;1757170;82;21140;-84
2021/01/22 03:38:43;;;;;;;5.75;2.27;;;;;;;4.88;67.90;95350.67;1757349;81;21484;-84
2021/01/22 03:41:10;;;;;;;5.37;2.67;;;;;;;4.96;67.74;95357.20;1757197;81;21156;-84
2021/01/22 03:43:37;;;;;;;7.45;2.22;;;;;;;4.93;67.64;95352.50;1757376;81;21167;-84
2021/01/22 03:46:04;;;;;;;2.30;1.60;;;;;;;4.88;67.34;95345.42;1757151;82;21143;-84
2021/01/22 03:48:31;;;;;;;4.62;1.70;;;;;;;4.96;66.59;95341.45;1757084;81;21533;-84
2021/01/22 03:50:58;;;;;;;4.35;1.90;;;;;;;5.11;66.42;95330.83;1757302;82;21523;-84
2021/01/22 03:53:25;;;;;;;5.22;1.98;;;;;;;5.20;66.17;95320.49;1757359;81;21143;-84
2021/01/22 03:55:54;;;;;;;3.67;2.30;;;;;;;5.23;66.01;95327.85;1757301;82;21159;-84
2021/01/22 03:58:21;;;;;;;5.97;2.10;;;;;;;5.19;66.14;95323.66;1757295;81;21143;-84
2021/01/22 04:00:47;;;;;;;5.28;2.70;;;;;;;5.14;66.24;95322.92;1757301;82;21164;-84
2021/01/22 04:03:14;;;;;;;4.03;2.02;;;;;;;5.06;66.51;95317.19;1757315;82;21139;-84
2021/01/22 04:05:41;;;;;;;2.87;1.67;;;;;;;4.98;66.63;95314.37;1757303;82;21112;-84
2021/01/22 04:08:08;;;;;;;3.35;1.98;;;;;;;4.94;66.84;95309.42;1757350;81;21654;-84
2021/01/22 04:10:35;;;;;;;4.97;2.30;;;;;;;4.88;66.98;95315.22;1757286;82;21508;-84
2021/01/22 04:13:02;;;;;;;3.62;1.85;;;;;;;4.84;67.16;95306.86;1757371;82;21155;-84
2021/01/22 04:15:31;;;;;;;4.55;2.20;;;;;;;4.83;67.31;95294.80;1757281;82;21187;-84
2021/01/22 04:17:58;;;;;;;3.05;1.67;;;;;;;4.83;67.43;95285.08;1757053;81;21484;-84
2021/01/22 04:20:25;;;;;;;3.75;1.90;;;;;;;4.85;67.52;95290.05;1757354;81;21649;-84
2021/01/22 04:22:52;;;;;;;4.42;2.02;;;;;;;4.87;67.67;95278.20;1757486;82;21293;-84
2021/01/22 04:25:19;;;;;;;3.75;2.35;;;;;;;4.88;67.71;95281.09;1757566;82;21136;-84
2021/01/22 04:27:47;;;;;;;5.12;2.00;;;;;;;4.92;67.74;95288.66;1757373;82;21166;-84
2021/01/22 04:30:15;;;;;;;6.30;2.02;;;;;;;4.94;67.80;95287.88;1757340;81;21301;-84
2021/01/22 04:32:42;;;;;;;4.35;2.17;;;;;;;5.01;67.79;95286.24;1757276;82;21484;-84
2021/01/22 04:35:14;;;;;;;3.60;1.95;;;;;;;5.13;67.95;95291.93;1757282;82;21165;-84
2021/01/22 04:37:45;;;;;;;5.28;1.42;;;;;;;5.18;68.02;95274.80;1757286;82;21151;-84
2021/01/22 04:40:13;;;;;;;3.67;2.12;;;;;;;5.38;68.23;95271.75;1757337;81;21168;-84
2021/01/22 04:42:44;;;;;;;4.08;2.17;;;;;;;5.46;67.75;95279.02;1757375;81;21282;-84
2021/01/22 04:45:14;;;;;;;4.03;1.98;;;;;;;5.43;67.80;95279.58;1757412;82;21139;-84
2021/01/22 04:47:42;;;;;;;4.58;2.33;;;;;;;5.41;67.78;95277.76;1757118;82;21534;-84
2021/01/22 04:50:14;;;;;;;5.12;2.35;;;;;;;5.36;67.75;95278.06;1757309;81;21468;-84
2021/01/22 04:52:44;;;;;;;4.65;2.45;;;;;;;5.34;67.70;95293.30;1757294;81;21096;-84
2021/01/22 04:55:16;;;;;;;5.20;2.80;;;;;;;5.29;67.72;95288.11;1757394;82;21139;-84
2021/01/22 04:57:46;;;;;;;4.95;2.20;;;;;;;5.21;67.79;95287.41;1757280;82;21116;-84
2021/01/22 05:00:16;;;;;;;4.87;2.40;;;;;;;5.18;67.87;95280.05;1757382;81;21122;-84
2021/01/22 05:02:43;;;;;;;4.67;2.52;;;;;;;5.15;67.97;95279.30;1757415;82;21499;-84
2021/01/22 05:05:12;;;;;;;5.00;2.67;;;;;;;5.20;68.10;95263.48;1757330;82;21274;-84
2021/01/22 05:07:39;;;;;;;1.77;1.27;;;;;;;5.21;68.03;95263.77;1766376;81;21134;-84
2021/01/22 05:10:08;;;;;;;4.33;1.87;;;;;;;5.25;67.91;95258.73;1767960;81;21532;-84
2021/01/22 05:12:37;;;;;;;3.72;2.20;;;;;;;5.45;67.87;95273.51;1768206;81;21467;-84
2021/01/22 05:15:16;;;;;;;5.62;2.15;;;;;;;5.48;67.67;95250.60;1768086;81;21521;-84
2021/01/22 05:18:04;;;;;;;6.87;2.40;;;;;;;5.47;67.58;95256.92;1762030;81;21136;-84
2021/01/22 05:20:41;;;;;;;6.17;2.85;;;;;;;5.38;67.42;95262.02;1757259;82;21104;-84
2021/01/22 05:23:11;;;;;;;5.40;2.58;;;;;;;5.24;67.55;95251.38;1757354;81;21274;-84
2021/01/22 05:26:02;;;;;;;3.67;2.30;;;;;;;5.17;67.73;95248.81;1757245;82;21143;-84
2021/01/22 05:28:42;;;;;;;3.10;2.05;;;;;;;5.19;68.04;95235.64;1757255;81;21172;-83
2021/01/22 05:31:18;;;;;;;3.10;1.63;;;;;;;5.20;68.04;95223.29;1755605;82;21152;-83
2021/01/22 05:33:57;;;;;;;4.40;2.25;;;;;;;5.28;68.21;95206.40;1751660;82;21492;-83
2021/01/22 05:36:33;;;;;;;3.70;1.80;;;;;;;5.29;68.16;95225.05;1751637;82;21164;-84
2021/01/22 05:39:03;;;;;;;4.80;2.47;;;;;;;5.26;68.24;95224.83;1751609;81;21116;-84
2021/01/22 05:41:30;;;;;;;5.67;2.47;;;;;;;5.27;68.41;95238.99;1751717;82;21282;-84
2021/01/22 05:43:58;;;;;;;4.22;2.30;;;;;;;5.31;68.59;95230.80;1722619;82;21113;-84
2021/01/22 05:46:28;;;;;;;4.17;2.35;;;;;;;5.35;68.51;95228.42;1751647;81;21181;-84
2021/01/22 05:49:12;;;;;;;3.80;2.17;;;;;;;5.33;68.46;95231.30;1751879;81;21176;-84
2021/01/22 05:51:39;;;;;;;4.60;2.40;;;;;;;5.41;68.76;95233.86;1751810;82;21148;-83
2021/01/22 05:54:07;;;;;;;4.97;2.85;;;;;;;5.43;68.66;95227.80;1751632;82;21176;-84
2021/01/22 05:56:35;;;;;;;6.70;3.00;;;;;;;5.45;68.77;95228.30;1751726;82;21278;-83
2021/01/22 05:59:14;;;;;;;5.17;2.67;;;;;;;5.47;68.72;95224.07;1751579;81;21152;-83
2021/01/22 06:01:42;;;;;;;2.80;2.30;;;;;;;5.49;68.70;95221.94;1751716;82;21649;-83
2021/01/22 06:04:09;;;;;;;6.03;2.72;;;;;;;5.44;69.02;95220.16;1751596;82;21156;-84
2021/01/22 06:06:36;;;;;;;6.15;2.70;;;;;;;5.47;69.17;95226.70;1751698;81;21658;-83
2021/01/22 06:09:05;;;;;;;5.33;2.80;;;;;;;5.50;69.03;95216.96;1751585;81;21302;-83
2021/01/22 06:11:33;;;;;;;6.58;3.10;;;;;;;5.52;69.02;95218.78;1751578;82;21164;-83
2021/01/22 06:14:07;;;;;;;9.90;3.12;;;;;;;5.49;69.03;95229.33;1751580;82;21116;-83
2021/01/22 06:16:37;;;;;;;5.90;3.40;;;;;;;5.55;69.30;95235.30;1751473;82;21328;-83
2021/01/22 06:19:07;;;;;;;3.77;2.50;;;;;;;5.66;69.22;95224.93;1751712;81;21671;-83
2021/01/22 06:21:49;;;;;;;;;;;;;;;5.69;69.21;95224.36;1754153;82;21156;-83
2021/01/22 06:24:17;;;;;;;7.28;2.67;;;;;;;5.79;69.22;95219.52;1751591;82;20126;-84
2021/01/22 06:26:47;;;;;;;6.95;3.95;;;;;;;5.86;69.01;95219.95;1751518;82;21155;-84
2021/01/22 06:29:16;;;;;;;16.10;8.20;;;;;;;5.85;68.71;95221.80;1751595;81;21255;-84
2021/01/22 06:31:45;;;;;;;4.70;2.35;;;;;;;5.65;68.33;95215.48;1754067;82;21151;-84
2021/01/22 06:34:15;;;;;;;7.62;3.50;;;;;;;5.63;69.94;95209.69;1757308;82;21602;-84
2021/01/22 06:36:44;;;;;;;4.03;2.55;;;;;;;5.77;69.59;95193.52;1757360;82;21480;-84
2021/01/22 06:39:12;;;;;;;7.17;2.17;;;;;;;6.05;70.13;95201.05;1757207;81;21134;-84
2021/01/22 06:41:41;;;;;;;4.80;2.47;;;;;;;6.47;69.96;95205.98;1757379;82;21124;-84
2021/01/22 06:44:08;;;;;;;5.90;2.87;;;;;;;6.57;68.94;95209.02;1757297;82;21203;-84
2021/01/22 06:46:35;;;;;;;5.62;2.50;;;;;;;6.61;68.96;95213.95;1756893;82;21164;-84
2021/01/22 06:49:05;;;;;;;2.45;1.67;;;;;;;6.83;68.95;95207.55;1757104;81;21160;-85
2021/01/22 06:51:36;;;;;;;5.25;2.67;;;;;;;6.97;68.62;95202.32;1757134;82;21148;-84
2021/01/22 06:54:18;;;;;;;3.45;1.77;;;;;;;7.15;68.12;95160.08;1757249;81;21149;-84
2021/01/22 06:57:06;;;;;;;3.87;2.02;;;;;;;7.29;67.66;95177.23;1757160;82;21128;-83
2021/01/22 06:59:40;;;;;;;6.78;2.67;;;;;;;7.34;67.72;95179.79;1756752;81;21173;-83
2021/01/22 07:02:38;;;;;;;7.17;2.62;;;;;;;7.32;67.37;95134.49;1757143;82;21143;-83
2021/01/22 07:05:35;;;;;;;4.35;2.25;;;;;;;7.42;67.53;95187.55;1757289;82;21136;-83
2021/01/22 07:08:02;;;;;;;7.67;2.35;;;;;;;7.37;67.47;95185.02;1757366;81;21310;-83
2021/01/22 07:11:02;;;;;;;3.98;2.08;;;;;;;7.33;67.61;95165.05;1757356;82;21175;-84
2021/01/22 07:13:35;;;;;;;3.05;1.72;;;;;;;7.38;67.67;95189.20;1757263;81;21155;-82
2021/01/22 07:16:10;;;;;;;2.60;1.62;;;;;;;7.55;67.75;95185.98;1757389;82;21306;-84
2021/01/22 07:18:53;;;;;;;2.15;1.52;;;;;;;7.74;67.33;95199.33;1756439;81;21159;-83
2021/01/22 07:21:31;;;;;;;2.20;1.57;;;;;;;7.84;67.08;95171.16;1757480;82;21123;-83
2021/01/22 07:24:03;;;;;;;3.98;1.95;;;;;;;7.98;66.76;95175.87;1757132;82;21092;-84
2021/01/22 07:26:38;;;;;;;2.77;1.50;;;;;;;8.07;66.61;95193.91;1757296;82;21128;-83
2021/01/22 07:29:24;;;;;;;3.17;1.85;;;;;;;8.11;66.33;95189.59;1757010;81;21163;-84
2021/01/22 07:32:04;;;;;;;7.15;2.05;;;;;;;8.18;66.14;95178.64;1757234;81;21154;-82
2021/01/22 07:34:50;;;;;;;1.55;1.05;;;;;;;8.21;66.03;95201.26;1757275;82;21119;-84
2021/01/22 07:37:24;;;;;;;3.58;1.62;;;;;;;8.20;65.95;95175.94;1757293;82;21140;-84
2021/01/22 07:39:56;;;;;;;3.27;1.87;;;;;;;8.25;65.78;95160.52;1757239;81;21172;-84
2021/01/22 07:42:27;;;;;;;4.30;2.33;;;;;;;8.25;65.74;95177.14;1757535;82;21615;-83
2021/01/22 07:44:59;;;;;;;4.78;1.42;;;;;;;8.25;65.87;95172.39;1757270;82;21136;-83
2021/01/22 07:47:30;;;;;;;7.78;1.52;;;;;;;8.20;65.87;95193.09;1756115;82;21151;-83
2021/01/22 07:52:50;;;;;;;2.77;1.82;;;;;;;8.38;65.60;95186.13;1878028;76;23000;-84
2021/01/22 07:55:23;;;;;;;2.50;1.15;;;;;;;8.36;65.42;95118.31;1819636;79;21246;-83
2021/01/22 07:58:05;;;;;;;2.02;1.27;;;;;;;8.40;65.38;95173.94;1819494;79;21472;-84
2021/01/22 08:00:40;;;;;;;2.67;1.32;;;;;;;8.48;65.15;95149.47;1787254;80;21483;-84
2021/01/22 08:03:09;;;;;;;3.27;2.02;;;;;;;8.50;64.95;95159.19;1787510;80;21232;-84
2021/01/22 08:05:40;;;;;;;4.92;1.90;;;;;;;8.48;64.95;95129.66;1787286;80;21486;-84
2021/01/22 08:08:23;;;;;;;3.02;1.98;;;;;;;8.46;64.93;95157.70;1787212;80;21119;-84
2021/01/22 08:10:51;;;;;;;3.17;1.47;;;;;;;8.47;64.99;95166.40;1787644;80;21308;-84
2021/01/22 08:13:19;;;;;;;2.35;1.50;;;;;;;8.45;64.94;95164.06;1761356;80;21535;-84
2021/01/22 08:15:46;;;;;;;7.50;2.12;;;;;;;8.43;65.00;95162.23;1787234;80;21146;-84
2021/01/22 08:18:16;;;;;;;4.75;1.75;;;;;;;8.43;65.14;95142.97;1749392;80;21143;-84
2021/01/22 08:20:51;;;;;;;3.47;1.60;;;;;;;8.47;65.06;95183.02;1739791;82;21170;-84
2021/01/22 08:23:19;;;;;;;4.12;1.65;;;;;;;8.53;65.01;95173.89;1739969;82;21179;-84
2021/01/22 08:25:46;;;;;;;6.58;2.37;;;;;;;8.55;64.94;95192.08;1739880;82;21162;-84
2021/01/22 08:28:13;;;;;;;4.03;2.25;;;;;;;8.54;65.01;95222.22;1739759;82;21138;-84
2021/01/22 08:30:41;;;;;;;4.40;2.20;;;;;;;8.63;64.81;95172.88;1739815;82;21582;-84
2021/01/22 08:33:09;;;;;;;3.55;1.52;;;;;;;8.65;64.77;95214.30;1739920;82;21134;-84
2021/01/22 08:35:36;;;;;;;2.80;1.60;;;;;;;8.66;64.84;95208.48;1739793;82;21135;-84
2021/01/22 08:38:05;;;;;;;5.25;1.90;;;;;;;8.72;64.86;95194.84;1739873;82;21506;-84
2021/01/22 08:40:44;;;;;;;1.90;1.70;;;;;;;8.77;64.66;95234.38;1739771;82;21499;-84
2021/01/22 08:43:12;;;;;;;2.62;1.52;;;;;;;8.74;64.83;95215.16;1739779;82;21559;-84
2021/01/22 08:45:42;;;;;;;2.55;1.50;;;;;;;8.76;65.01;95228.84;1739784;82;21147;-84
2021/01/22 08:48:11;;;;;;;2.95;2.10;;;;;;;8.77;65.01;95169.63;1776238;80;21453;-84
2021/01/22 08:50:39;;;;;;;1.60;1.27;;;;;;;8.77;65.01;95189.45;1787190;80;21499;-84
2021/01/22 08:53:12;;;;;;;2.90;1.55;;;;;;;8.74;65.09;95206.45;1787498;80;21091;-84
2021/01/22 08:55:43;;;;;;;2.52;1.67;;;;;;;8.75;65.16;95179.73;1787241;80;21150;-84
2021/01/22 08:58:13;;;;;;;7.85;2.42;;;;;;;8.70;65.19;95246.42;1787449;80;21188;-84
2021/01/22 09:00:41;;;;;;;3.87;1.87;;;;;;;8.70;65.30;95186.98;1787343;80;21123;-84
2021/01/22 09:03:24;;;;;;;4.42;2.08;;;;;;;8.67;65.45;95245.16;1786979;80;21146;-85
2021/01/22 09:05:54;;;;;;;6.12;2.30;;;;;;;8.67;65.48;95169.88;1787043;80;21136;-83
2021/01/22 09:08:24;;;;;;;3.72;1.80;;;;;;;8.70;65.49;95245.10;1786754;80;21358;-84
2021/01/22 09:10:51;;;;;;;2.95;1.90;;;;;;;8.72;65.54;95192.20;1786867;80;21180;-84
2021/01/22 09:13:25;;;;;;;4.58;1.90;;;;;;;8.71;65.55;95219.70;1786725;80;21099;-84
2021/01/22 09:16:09;;;;;;;2.87;2.17;;;;;;;8.73;65.58;95251.13;1786707;80;21497;-84
2021/01/22 09:18:36;;;;;;;4.58;2.40;;;;;;;8.76;65.56;95193.17;1742059;80;21164;-84
2021/01/22 09:21:06;;;;;;;3.77;1.40;;;;;;;8.73;65.60;95179.25;1739303;82;21523;-84
2021/01/22 09:23:36;;;;;;;2.10;1.42;;;;;;;8.74;65.59;95207.77;1739630;82;21123;-85
2021/01/22 09:26:06;;;;;;;3.08;1.42;;;;;;;8.71;65.69;95177.97;1739415;82;21522;-85
2021/01/22 09:28:33;;;;;;;5.80;1.82;;;;;;;8.70;65.69;95203.61;1739707;82;21162;-84
2021/01/22 09:31:00;;;;;;;3.00;1.67;;;;;;;8.70;65.76;95202.29;1739171;82;21123;-85
2021/01/22 09:33:28;;;;;;;2.25;1.40;;;;;;;8.72;65.70;95178.98;1739159;82;21134;-85
2021/01/22 09:35:55;;;;;;;2.45;1.57;;;;;;;8.77;65.60;95214.55;1739456;82;21167;-85
2021/01/22 09:38:24;;;;;;;5.03;1.98;;;;;;;8.77;65.55;95215.09;1739285;82;21178;-85
2021/01/22 09:40:51;;;;;;;1.80;1.07;;;;;;;8.75;65.56;95182.38;1722710;82;21181;-85
2021/01/22 09:43:18;;;;;;;1.90;1.75;;;;;;;8.77;65.63;95202.66;1739359;82;21130;-85
2021/01/22 09:45:46;;;;;;;4.78;1.10;;;;;;;8.82;65.48;95236.88;1739155;82;21142;-85
2021/01/22 09:48:16;;;;;;;3.67;1.75;;;;;;;8.87;65.29;95228.08;1739693;80;21119;-84
2021/01/22 09:50:42;;;;;;;4.15;1.30;;;;;;;8.87;65.24;95219.61;1739167;82;21159;-85
2021/01/22 09:53:09;;;;;;;4.70;2.00;;;;;;;8.89;65.29;95226.69;1739163;82;21507;-85
2021/01/22 09:55:36;;;;;;;2.42;1.45;;;;;;;8.88;65.26;95237.02;1739242;82;21171;-85
2021/01/22 09:58:03;;;;;;;3.02;1.72;;;;;;;8.89;65.29;95216.66;1739184;82;21269;-85
2021/01/22 10:00:30;;;;;;;2.90;2.05;;;;;;;8.88;65.33;95196.60;1739201;82;21725;-85
2021/01/22 10:02:59;;;;;;;2.37;1.32;;;;;;;8.89;65.38;95231.20;1739362;82;21221;-84
2021/01/22 10:05:26;;;;;;;6.20;1.98;;;;;;;8.99;65.25;95209.00;1739197;82;21140;-85
2021/01/22 10:07:53;;;;;;;4.20;1.70;;;;;;;9.11;64.98;95219.81;1739194;82;21506;-85
2021/01/22 10:10:21;;;;;;;2.25;1.27;;;;;;;9.15;64.83;95231.36;1739284;82;21127;-85
2021/01/22 10:12:50;;;;;;;3.67;1.95;;;;;;;9.15;64.79;95226.08;1739187;82;21281;-85
2021/01/22 10:15:17;;;;;;;3.08;1.30;;;;;;;9.10;64.84;95238.86;1739054;82;21152;-85
2021/01/22 10:17:45;;;;;;;4.30;1.95;;;;;;;9.08;64.88;95215.14;1739713;80;21151;-85
2021/01/22 10:20:13;;;;;;;4.30;2.00;;;;;;;9.04;64.99;95207.58;1739272;82;21151;-84
2021/01/22 10:22:41;;;;;;;4.53;1.25;;;;;;;9.00;65.10;95215.31;1739182;82;21186;-85
2021/01/22 10:25:10;;;;;;;3.42;1.80;;;;;;;8.98;65.20;95220.13;1739201;82;21138;-85
2021/01/22 10:27:37;;;;;;;4.22;1.65;;;;;;;8.95;65.22;95197.48;1739252;82;21547;-85
2021/01/22 10:30:06;;;;;;;2.45;1.70;;;;;;;8.90;65.32;95199.17;1739324;82;21195;-85
2021/01/22 10:32:33;;;;;;;2.72;1.70;;;;;;;8.88;65.43;95240.20;1739244;82;21150;-86
2021/01/22 10:35:01;;;;;;;3.52;1.65;;;;;;;8.88;65.33;95152.45;1739410;82;21430;-85
2021/01/22 10:37:28;;;;;;;3.90;1.70;;;;;;;8.86;65.34;95145.34;1739250;82;21486;-86
2021/01/22 10:39:55;;;;;;;11.35;1.87;;;;;;;8.89;65.31;95214.80;1739221;82;21176;-85
2021/01/22 10:42:22;;;;;;;4.17;2.20;;;;;;;8.91;65.27;95203.38;1739316;82;21146;-85
2021/01/22 10:44:49;;;;;;;2.85;1.77;;;;;;;8.98;65.07;95215.37;1739340;82;21158;-85
2021/01/22 10:47:17;;;;;;;3.50;1.35;;;;;;;9.00;64.88;95108.80;1739708;80;21140;-85
2021/01/22 10:49:44;;;;;;;4.10;2.40;;;;;;;9.01;64.65;95240.69;1739091;82;21123;-85
2021/01/22 10:52:11;;;;;;;3.80;1.35;;;;;;;9.06;64.46;95187.69;1739448;82;21458;-85
2021/01/22 10:54:38;;;;;;;3.17;1.60;;;;;;;9.10;64.22;95198.42;1740012;82;21147;-84
2021/01/22 10:57:06;;;;;;;3.17;1.67;;;;;;;9.08;64.10;95197.41;1740137;82;21277;-84
2021/01/22 10:59:33;;;;;;;3.50;1.57;;;;;;;9.11;63.97;95206.59;1740169;82;21285;-84
2021/01/22 11:02:00;;;;;;;4.42;1.75;;;;;;;9.10;63.78;95160.09;1740025;82;21131;-84
2021/01/22 11:04:27;;;;;;;1.92;1.30;;;;;;;9.10;63.77;95185.20;1739966;82;21499;-85
2021/01/22 11:06:55;;;;;;;1.92;1.15;;;;;;;9.10;63.63;95187.31;1739940;82;21498;-85
2021/01/22 11:09:22;;;;;;;2.95;1.35;;;;;;;9.09;63.67;95166.47;1739905;82;21163;-84
2021/01/22 11:11:50;;;;;;;3.90;1.45;;;;;;;9.02;63.67;95180.12;1740087;82;21284;-84
2021/01/22 11:14:18;;;;;;;1.70;0.95;;;;;;;9.03;63.40;95134.65;1740015;82;21499;-84
2021/01/22 11:16:45;;;;;;;3.27;1.55;;;;;;;9.05;63.38;95096.80;1740417;80;21146;-84
2021/01/22 11:19:13;;;;;;;3.37;1.20;;;;;;;9.01;63.24;95148.69;1740067;82;21322;-85
2021/01/22 11:21:40;;;;;;;1.72;1.10;;;;;;;8.99;63.34;95094.80;1739941;82;21483;-84
2021/01/22 11:24:07;;;;;;;2.20;1.37;;;;;;;8.98;63.23;95157.23;1739919;82;21180;-85
2021/01/22 11:26:34;;;;;;;0.93;0.90;;;;;;;8.95;63.14;95117.65;1739997;82;21660;-85
2021/01/22 11:29:02;;;;;;;2.95;0.88;;;;;;;8.90;63.18;95137.07;1740066;82;21158;-85
2021/01/22 11:31:29;;;;;;;2.85;1.22;;;;;;;8.88;62.87;95173.59;1739971;82;21519;-85
2021/01/22 11:33:56;;;;;;;2.72;0.95;;;;;;;8.93;62.78;95143.61;1739942;82;21130;-84
2021/01/22 11:36:24;;;;;;;2.22;1.00;;;;;;;8.95;62.49;95154.66;1740012;82;21154;-85
2021/01/22 11:38:51;;;;;;;2.10;1.02;;;;;;;8.93;62.36;95041.86;1739993;82;21139;-85
2021/01/22 11:41:18;;;;;;;4.60;1.17;;;;;;;8.99;62.12;95152.17;1740071;82;21611;-84
2021/01/22 11:43:45;;;;;;;1.17;0.80;;;;;;;9.01;61.86;95135.47;1740008;82;21135;-84
2021/01/22 11:46:13;;;;;;;1.12;0.70;;;;;;;9.00;61.84;95159.02;1739984;82;21158;-84
2021/01/22 11:48:40;;;;;;;1.35;0.70;;;;;;;9.02;61.80;95170.09;1740447;80;21138;-84
2021/01/22 11:51:08;;;;;;;2.98;1.02;;;;;;;9.00;61.80;95153.19;1739892;82;21138;-84
2021/01/22 11:53:35;;;;;;;1.55;0.90;;;;;;;9.01;61.81;95169.83;1739168;82;21166;-85
2021/01/22 11:56:02;;;;;;;2.80;1.20;;;;;;;9.00;61.96;95182.81;1739201;82;21111;-85